Sigas Ingrid — VRCQ6 — position and weather

sailwx.info

Track history (hours):
 
Tides and Currents Weather Stations Pressure Air Temp Water Temp Dewpoint Dewpoint Depression Visibility Wind Speed Wind Dir Waves Ship Positions

Sigas Ingrid

Last reported at 2017-Mar-17 04:28 UTC. Time now 2017-Mar-23 12:11 UTC.
Position N 02°04' E 102°07'.

Length 100 m; draft 5.5 m.

Type: Ship (hazmat cat B). MMSI: 477658800.

Date/timePositionNaut miles runAvg speedWind from/ knotsBaromVisibWave heightAir tempDewpointWater temp
2017-Mar-17 04:28N 02°04' E 102°07'1312.5
2017-Mar-17 03:27N 01°57' E 102°17'1112.2
2017-Mar-17 02:33N 01°52' E 102°27'1412.5
2017-Mar-17 01:27N 01°47' E 102°40'1213.4
2017-Mar-17 00:32N 01°41' E 102°51'3214.4
2017-Mar-16 22:20N 01°22' E 103°16'1114.2
2017-Mar-16 21:33N 01°15' E 103°25'1312.8
2017-Mar-16 20:33N 01°12' E 103°37'2 1.7
2017-Mar-16 19:28N 01°13' E 103°38'0 0.0
2017-Mar-16 18:31N 01°13' E 103°38'0 0.0
2017-Mar-16 17:31N 01°13' E 103°38'0 0.0
2017-Mar-16 16:31N 01°13' E 103°38'0 0.0
2017-Mar-16 15:31N 01°13' E 103°38'0 0.0
2017-Mar-16 14:28N 01°13' E 103°38'0 0.0
2017-Mar-16 13:10N 01°13' E 103°38'0 0.0
2017-Mar-16 09:25N 01°14' E 103°38'0 0.1
2017-Mar-16 08:32N 01°14' E 103°38'5 5.0
2017-Mar-16 07:33N 01°10' E 103°42'5 4.5
2017-Mar-16 06:33N 01°10' E 103°46'7 6.6
2017-Mar-16 05:33N 01°12' E 103°52'8 8.1
2017-Mar-16 04:33N 01°16' E 103°60'  
Track history (hours):
 
Tides and Currents Weather Stations Pressure Air Temp Water Temp Dewpoint Dewpoint Depression Visibility Wind Speed Wind Dir Waves Ship Positions

Sigas Ingrid

Last reported at 2017-Mar-17 04:28 UTC. Time now 2017-Mar-23 12:11 UTC.
Position N 02°04' E 102°07'.

Length 100 m; draft 5.5 m.

Type: Ship (hazmat cat B). MMSI: 477658800.

Date/timePositionNaut miles runAvg speedWind from/ knotsBaromVisibWave heightAir tempDewpointWater temp
2017-Mar-17 04:28N 02°04' E 102°07'1312.5
2017-Mar-17 03:27N 01°57' E 102°17'1112.2
2017-Mar-17 02:33N 01°52' E 102°27'1412.5
2017-Mar-17 01:27N 01°47' E 102°40'1213.4
2017-Mar-17 00:32N 01°41' E 102°51'3214.4
2017-Mar-16 22:20N 01°22' E 103°16'1114.2
2017-Mar-16 21:33N 01°15' E 103°25'1312.8
2017-Mar-16 20:33N 01°12' E 103°37'2 1.7
2017-Mar-16 19:28N 01°13' E 103°38'0 0.0
2017-Mar-16 18:31N 01°13' E 103°38'0 0.0
2017-Mar-16 17:31N 01°13' E 103°38'0 0.0
2017-Mar-16 16:31N 01°13' E 103°38'0 0.0
2017-Mar-16 15:31N 01°13' E 103°38'0 0.0
2017-Mar-16 14:28N 01°13' E 103°38'0 0.0
2017-Mar-16 13:10N 01°13' E 103°38'0 0.0
2017-Mar-16 09:25N 01°14' E 103°38'0 0.1
2017-Mar-16 08:32N 01°14' E 103°38'5 5.0
2017-Mar-16 07:33N 01°10' E 103°42'5 4.5
2017-Mar-16 06:33N 01°10' E 103°46'7 6.6
2017-Mar-16 05:33N 01°12' E 103°52'8 8.1
2017-Mar-16 04:33N 01°16' E 103°60'  

Dump ship's entire track history